Time;durP1;ratioP1;P1;durP2;ratioP2;P2;SDS_P1;SDS_P2;PMS_P1;PMS_P2;Temp;Humidity;BMP_temperature;BMP_pressure;BME280_temperature;BME280_humidity;BME280_pressure;Samples;Min_cycle;Max_cycle;Signal;HPM_P1;HPM_P2
2023/02/09 07:04:56;;;;;;;6.90;5.10;;;;;;;;;;10506548;28;20973;-86
2023/02/09 07:09:57;;;;;;;7.20;5.10;;;;;;;;;;10500600;28;20087;-86
2023/02/09 07:14:58;;;;;;;8.77;6.22;;;;;;;;;;10500835;28;20111;-86
2023/02/09 07:19:59;;;;;;;11.38;8.00;;;;;;;;;;10500588;28;20025;-86
2023/02/09 07:25:00;;;;;;;8.13;6.07;;;;;;;;;;10502332;28;20020;-86
2023/02/09 07:30:01;;;;;;;12.65;9.38;;;;;;;;;;10501111;28;20128;-85
2023/02/09 07:35:02;;;;;;;10.85;7.28;;;;;;;;;;10508329;28;20044;-86
2023/02/09 07:40:03;;;;;;;11.18;9.05;;;;;;;;;;10497830;28;20040;-85
2023/02/09 07:45:04;;;;;;;;;;;;;;;;;;10500247;28;20025;-85
2023/02/09 07:50:05;;;;;;;8.15;5.80;;;;;;;;;;10498760;28;19972;-86
2023/02/09 07:55:07;;;;;;;8.00;6.57;;;;;;;;;;10493834;28;20036;-85
2023/02/09 08:00:07;;;;;;;;;;;;;;;;;;10513153;28;20079;-85
2023/02/09 08:05:11;;;;;;;13.55;8.43;;;;;;;;;;10476986;28;19909;-84
2023/02/09 08:10:12;;;;;;;14.07;8.52;;;;;;;;;;10476527;28;20447;-79
2023/02/09 08:15:15;;;;;;;11.00;8.07;;;;;;;;;;10480330;28;20088;-79
2023/02/09 08:20:17;;;;;;;10.00;7.10;;;;;;;;;;10483866;28;20370;-79
2023/02/09 08:25:20;;;;;;;10.98;8.43;;;;;;;;;;10482635;28;20096;-79
2023/02/09 08:30:21;;;;;;;15.32;7.43;;;;;;;;;;10484148;28;20021;-79
2023/02/09 08:35:22;;;;;;;10.85;7.68;;;;;;;;;;10469971;28;20047;-79
2023/02/09 08:40:23;;;;;;;;;;;;;;;;;;10481721;28;20056;-79
2023/02/09 08:45:24;;;;;;;10.25;7.40;;;;;;;;;;10495393;28;19948;-79
2023/02/09 08:50:25;;;;;;;;;;;;;;;;;;10485820;28;20040;-79
2023/02/09 08:55:26;;;;;;;11.82;8.63;;;;;;;;;;10479460;28;19921;-79
2023/02/09 09:00:27;;;;;;;;;;;;;;;;;;10477726;28;20165;-79
2023/02/09 09:05:28;;;;;;;10.70;7.80;;;;;;;;;;10471626;28;19951;-79
2023/02/09 09:10:30;;;;;;;10.32;8.00;;;;;;;;;;10468579;28;20031;-79
2023/02/09 09:15:31;;;;;;;11.13;8.50;;;;;;;;;;10473531;28;20048;-80
2023/02/09 09:20:32;;;;;;;;;;;;;;;;;;10473227;28;20036;-82
2023/02/09 09:25:33;;;;;;;10.48;8.50;;;;;;;;;;10470492;28;19905;-80
2023/02/09 09:30:34;;;;;;;;;;;;;;;;;;10468176;28;20071;-79
2023/02/09 09:35:35;;;;;;;13.10;8.88;;;;;;;;;;10468880;28;20323;-80
2023/02/09 09:40:39;;;;;;;13.02;9.68;;;;;;;;;;10467833;28;20128;-81
2023/02/09 09:45:40;;;;;;;10.75;7.65;;;;;;;;;;10467539;28;20111;-81
2023/02/09 09:50:42;;;;;;;10.48;6.90;;;;;;;;;;10470389;28;20080;-80
2023/02/09 09:55:44;;;;;;;11.48;7.88;;;;;;;;;;10471412;28;20119;-81
2023/02/09 10:00:45;;;;;;;15.88;12.60;;;;;;;;;;10474262;28;20048;-78
2023/02/09 10:05:47;;;;;;;13.60;8.95;;;;;;;;;;10464121;28;20025;-81
2023/02/09 10:10:57;;;;;;;15.43;9.10;;;;;;;;;;10475066;28;20472;-81
2023/02/09 10:15:59;;;;;;;13.35;9.18;;;;;;;;;;10484353;28;20059;-81
2023/02/09 10:21:05;;;;;;;10.88;7.88;;;;;;;;;;10482205;28;20035;-80
2023/02/09 10:26:09;;;;;;;13.07;8.10;;;;;;;;;;10480833;28;20067;-79
2023/02/09 10:31:14;;;;;;;13.20;9.20;;;;;;;;;;10476746;28;20040;-79
2023/02/09 10:36:23;;;;;;;18.80;14.50;;;;;;;;;;10476731;28;20052;-80
2023/02/09 10:41:24;;;;;;;20.15;13.38;;;;;;;;;;10479097;28;20029;-80
2023/02/09 10:46:25;;;;;;;10.68;7.45;;;;;;;;;;10478670;28;20079;-80
2023/02/09 10:51:32;;;;;;;11.32;9.02;;;;;;;;;;10484278;28;20036;-80
2023/02/09 10:56:35;;;;;;;11.27;8.35;;;;;;;;;;10484108;28;20049;-81
2023/02/09 11:01:42;;;;;;;11.25;8.15;;;;;;;;;;10483469;28;20128;-80
2023/02/09 11:07:03;;;;;;;10.05;7.65;;;;;;;;;;10476877;28;20440;-79
2023/02/09 11:12:04;;;;;;;;;;;;;;;;;;10480257;28;20049;-80
2023/02/09 11:17:26;;;;;;;10.32;8.40;;;;;;;;;;10480737;28;19976;-79
2023/02/09 11:22:38;;;;;;;13.15;8.55;;;;;;;;;;10481407;28;20043;-79
2023/02/09 11:27:42;;;;;;;11.02;7.47;;;;;;;;;;10478308;28;20067;-81
2023/02/09 11:32:46;;;;;;;13.38;9.82;;;;;;;;;;10480405;28;20021;-81
2023/02/09 11:38:06;;;;;;;9.18;6.50;;;;;;;;;;10478670;28;20029;-81
2023/02/09 11:43:10;;;;;;;13.60;9.05;;;;;;;;;;10485568;28;20029;-80
2023/02/09 11:48:25;;;;;;;11.48;8.02;;;;;;;;;;10480920;28;20021;-81
2023/02/09 11:53:32;;;;;;;11.25;7.68;;;;;;;;;;10477243;28;20092;-81
2023/02/09 11:58:39;;;;;;;9.15;6.30;;;;;;;;;;10422439;22;20106;-79
2023/02/09 12:03:42;;;;;;;12.10;9.25;;;;;;;;;;10419352;28;20046;-79
2023/02/09 12:08:58;;;;;;;9.35;6.97;;;;;;;;;;10413098;28;20060;-81
2023/02/09 12:14:17;;;;;;;8.63;6.68;;;;;;;;;;10398487;28;20021;-81
2023/02/09 12:19:24;;;;;;;9.88;7.13;;;;;;;;;;10402708;28;20113;-81
2023/02/09 12:24:38;;;;;;;10.25;6.88;;;;;;;;;;10402591;28;20034;-81
2023/02/09 12:29:40;;;;;;;10.38;7.70;;;;;;;;;;10393194;28;20503;-82
2023/02/09 12:34:42;;;;;;;12.63;9.30;;;;;;;;;;10407210;28;20026;-82
2023/02/09 12:40:02;;;;;;;11.32;7.45;;;;;;;;;;10391251;28;20113;-82
2023/02/09 12:45:23;;;;;;;8.68;5.88;;;;;;;;;;10389767;28;20052;-82
2023/02/09 12:50:32;;;;;;;10.68;7.55;;;;;;;;;;10392328;28;20125;-82
2023/02/09 12:55:33;;;;;;;7.57;5.88;;;;;;;;;;10391702;28;20520;-82
2023/02/09 13:00:39;;;;;;;16.13;9.18;;;;;;;;;;10396900;28;20030;-82
2023/02/09 13:05:43;;;;;;;9.85;7.45;;;;;;;;;;10391733;28;20056;-82
2023/02/09 13:10:44;;;;;;;11.32;8.20;;;;;;;;;;10389557;28;20032;-83
2023/02/09 13:15:54;;;;;;;12.98;9.15;;;;;;;;;;10388989;28;20030;-82
2023/02/09 13:21:04;;;;;;;8.40;6.03;;;;;;;;;;10390588;28;20431;-82
2023/02/09 13:26:14;;;;;;;10.65;8.95;;;;;;;;;;10402971;28;20076;-81
2023/02/09 13:31:16;;;;;;;9.80;7.10;;;;;;;;;;10388495;28;20120;-81
2023/02/09 13:36:17;;;;;;;8.50;6.35;;;;;;;;;;10385792;28;20033;-81
2023/02/09 13:41:44;;;;;;;12.57;7.60;;;;;;;;;;10387191;28;20030;-82
2023/02/09 13:46:51;;;;;;;10.27;7.70;;;;;;;;;;10384802;28;20097;-82
2023/02/09 13:52:11;;;;;;;10.88;8.27;;;;;;;;;;10389198;28;20032;-81
2023/02/09 13:57:23;;;;;;;9.27;6.88;;;;;;;;;;10388867;28;20048;-83
2023/02/09 14:02:26;;;;;;;10.82;7.10;;;;;;;;;;10388774;28;20038;-82
2023/02/09 14:07:30;;;;;;;10.65;8.07;;;;;;;;;;10391675;28;20022;-82
2023/02/09 14:12:49;;;;;;;10.38;7.13;;;;;;;;;;10392429;28;20026;-82
2023/02/09 14:17:50;;;;;;;12.32;8.18;;;;;;;;;;10388520;28;20056;-83
2023/02/09 14:22:55;;;;;;;15.95;11.35;;;;;;;;;;10396121;28;20026;-80
2023/02/09 14:27:56;;;;;;;13.25;8.68;;;;;;;;;;10401941;28;20053;-84
2023/02/09 14:32:59;;;;;;;13.02;9.38;;;;;;;;;;10388533;28;20026;-83
2023/02/09 14:38:01;;;;;;;9.32;7.18;;;;;;;;;;10405372;28;20018;-83
2023/02/09 14:43:02;;;;;;;12.40;8.35;;;;;;;;;;10406080;28;20143;-82
2023/02/09 14:48:20;;;;;;;10.98;8.45;;;;;;;;;;10386477;28;20030;-81
2023/02/09 14:53:24;;;;;;;10.27;6.22;;;;;;;;;;10386350;28;20026;-80
2023/02/09 14:58:29;;;;;;;9.05;6.43;;;;;;;;;;10384584;28;20124;-82
2023/02/09 15:03:30;;;;;;;11.93;8.65;;;;;;;;;;10387967;28;20528;-82
2023/02/09 15:08:31;;;;;;;;;;;;;;;;;;10386347;28;20029;-82
2023/02/09 15:13:34;;;;;;;14.48;10.80;;;;;;;;;;10391945;28;19912;-82
2023/02/09 15:18:35;;;;;;;12.98;7.28;;;;;;;;;;10396638;28;20034;-83
2023/02/09 15:23:36;;;;;;;10.18;6.65;;;;;;;;;;10395269;28;20052;-82
2023/02/09 15:28:37;;;;;;;;;;;;;;;;;;10396658;28;20084;-82
2023/02/09 15:33:38;;;;;;;9.73;6.60;;;;;;;;;;10397737;28;19937;-82
2023/02/09 15:38:39;;;;;;;;;;;;;;;;;;10399908;28;20033;-82
2023/02/09 15:49:00;;;;;;;7.30;5.45;;;;;;;;;;10411275;28;20033;-82
2023/02/09 15:54:02;;;;;;;13.05;7.22;;;;;;;;;;10417380;28;20037;-79
2023/02/09 15:59:04;;;;;;;13.18;9.02;;;;;;;;;;10415706;28;20057;-82
2023/02/09 16:04:05;;;;;;;13.50;9.13;;;;;;;;;;10404000;28;20053;-81
2023/02/09 16:09:06;;;;;;;;;;;;;;;;;;10393658;28;20045;-82
2023/02/09 16:14:15;;;;;;;8.57;7.22;;;;;;;;;;10406548;28;19909;-82
2023/02/09 16:19:16;;;;;;;10.50;7.78;;;;;;;;;;10403386;28;20065;-84
2023/02/09 16:24:24;;;;;;;11.48;7.28;;;;;;;;;;10401701;28;20049;-82
2023/02/09 16:29:25;;;;;;;10.35;7.55;;;;;;;;;;10421756;28;20120;-82
2023/02/09 16:34:26;;;;;;;10.00;7.53;;;;;;;;;;10407176;28;20474;-83
2023/02/09 16:39:27;;;;;;;;;;;;;;;;;;10400745;28;20034;-82
2023/02/09 16:44:36;;;;;;;9.48;7.47;;;;;;;;;;10391288;28;19912;-82
2023/02/09 16:49:42;;;;;;;10.77;7.88;;;;;;;;;;10392515;28;20104;-82
2023/02/09 16:54:45;;;;;;;11.10;7.25;;;;;;;;;;10394657;28;20101;-81
2023/02/09 16:59:46;;;;;;;8.00;6.43;;;;;;;;;;10389055;28;20021;-81
2023/02/09 17:04:47;;;;;;;10.43;7.00;;;;;;;;;;10390186;28;20068;-82
2023/02/09 17:09:48;;;;;;;;;;;;;;;;;;10390312;28;20112;-82
2023/02/09 17:14:49;;;;;;;8.52;6.47;;;;;;;;;;10390775;28;19959;-82
2023/02/09 17:19:50;;;;;;;;;;;;;;;;;;10410827;28;20076;-81
2023/02/09 17:24:54;;;;;;;12.48;8.85;;;;;;;;;;10389816;28;19906;-81
2023/02/09 17:29:55;;;;;;;11.00;7.38;;;;;;;;;;10382922;28;20065;-82
2023/02/09 17:34:55;;;;;;;;;;;;;;;;;;10381332;28;20026;-82
2023/02/09 17:39:56;;;;;;;15.07;10.10;;;;;;;;;;10382093;28;20288;-81
2023/02/09 17:44:57;;;;;;;;;;;;;;;;;;10382448;28;20093;-83
2023/02/09 17:49:58;;;;;;;8.82;6.70;;;;;;;;;;10382419;28;19905;-82
2023/02/09 17:54:59;;;;;;;;;;;;;;;;;;10451364;22;20063;-85
2023/02/09 18:00:01;;;;;;;10.75;7.05;;;;;;;;;;10439431;28;19912;-85
2023/02/09 18:21:48;;;;;;;10.27;7.68;;;;;;;;;;10422863;28;19916;-84
2023/02/09 18:27:24;;;;;;;10.40;8.18;;;;;;;;;;10399678;28;20025;-86
2023/02/09 18:43:59;;;;;;;15.32;11.48;;;;;;;;;;10392074;28;20514;-85
2023/02/09 18:49:21;;;;;;;10.75;7.63;;;;;;;;;;10395624;28;20042;-85
2023/02/09 18:54:45;;;;;;;6.80;5.53;;;;;;;;;;10346556;28;20038;-84
2023/02/09 19:22:42;;;;;;;8.75;6.03;;;;;;;;;;10391392;28;20065;-85
2023/02/09 19:39:11;;;;;;;9.52;7.45;;;;;;;;;;10385132;28;20033;-85
2023/02/09 19:44:40;;;;;;;9.73;7.35;;;;;;;;;;10384451;28;20033;-85
2023/02/09 19:50:03;;;;;;;8.00;6.45;;;;;;;;;;10386976;28;20081;-85
2023/02/09 19:55:51;;;;;;;9.80;6.50;;;;;;;;;;10387258;28;20030;-85
